Time;durP1;ratioP1;P1;durP2;ratioP2;P2;SDS_P1;SDS_P2;PMS_P1;PMS_P2;Temp;Humidity;BMP_temperature;BMP_pressure;BME280_temperature;BME280_humidity;BME280_pressure;Samples;Min_cycle;Max_cycle;Signal;HPM_P1;HPM_P2
2022/09/26 00:02:00;;;;;;;6.43;4.90;;;14.20;99.90;;;;;;5053768;28;20029;-76
2022/09/26 00:04:28;;;;;;;8.27;5.43;;;14.20;99.90;;;;;;5053777;28;20074;-77
2022/09/26 00:06:55;;;;;;;8.30;5.30;;;14.20;99.90;;;;;;5056532;28;20117;-76
2022/09/26 00:09:23;;;;;;;6.55;4.57;;;14.30;99.90;;;;;;5070973;28;20033;-76
2022/09/26 00:11:49;;;;;;;6.88;4.80;;;14.20;99.90;;;;;;5063603;28;20071;-77
2022/09/26 00:14:21;;;;;;;5.65;4.10;;;14.10;99.90;;;;;;5037876;28;21986;-76
2022/09/26 00:16:47;;;;;;;5.20;3.47;;;14.10;99.90;;;;;;5052591;28;20064;-77
2022/09/26 00:19:13;;;;;;;4.82;2.83;;;14.10;99.90;;;;;;5040969;28;20064;-77
2022/09/26 00:21:39;;;;;;;5.97;3.17;;;14.00;99.90;;;;;;5054533;28;20025;-77
2022/09/26 00:24:05;;;;;;;5.15;3.47;;;14.00;99.90;;;;;;5052667;28;20376;-77
2022/09/26 00:26:33;;;;;;;5.18;3.22;;;14.00;99.90;;;;;;5052034;28;20033;-77
2022/09/26 00:29:03;;;;;;;6.20;3.08;;;14.00;99.90;;;;;;5051601;28;20063;-76
2022/09/26 00:31:31;;;;;;;6.80;3.05;;;14.10;99.90;;;;;;5034473;28;20030;-77
2022/09/26 00:33:58;;;;;;;5.22;2.03;;;14.00;99.90;;;;;;5055154;28;20028;-77
2022/09/26 00:36:25;;;;;;;3.42;1.83;;;13.80;99.90;;;;;;5053695;28;20506;-76
2022/09/26 00:38:50;;;;;;;4.97;2.08;;;13.70;99.90;;;;;;5035096;28;20026;-77
2022/09/26 00:41:16;;;;;;;4.60;1.92;;;13.70;99.90;;;;;;5044488;28;20028;-76
2022/09/26 00:43:54;;;;;;;3.30;1.85;;;13.80;99.90;;;;;;5055032;28;20029;-77
2022/09/26 00:46:39;;;;;;;2.63;1.30;;;13.70;99.90;;;;;;5050961;28;20083;-77
2022/09/26 00:49:21;;;;;;;3.25;1.65;;;13.60;99.90;;;;;;5032256;28;20037;-77
2022/09/26 00:51:54;;;;;;;3.00;1.40;;;13.60;99.90;;;;;;5046234;28;20033;-77
2022/09/26 00:54:20;;;;;;;2.78;1.40;;;13.70;99.90;;;;;;5052643;28;20025;-76
2022/09/26 00:56:51;;;;;;;4.53;1.55;;;13.60;99.90;;;;;;5051512;28;20035;-76
2022/09/26 00:59:36;;;;;;;2.95;1.40;;;13.50;99.90;;;;;;5040073;28;20029;-76
2022/09/26 01:02:03;;;;;;;3.38;1.73;;;13.50;99.90;;;;;;5033999;28;20025;-77
2022/09/26 01:04:33;;;;;;;2.72;1.20;;;13.50;99.90;;;;;;5034182;28;20086;-76
2022/09/26 01:07:04;;;;;;;3.60;1.80;;;13.40;99.90;;;;;;5034674;28;20384;-76
2022/09/26 01:09:31;;;;;;;3.78;1.45;;;13.50;99.90;;;;;;5033356;28;20120;-76
2022/09/26 01:12:00;;;;;;;4.55;1.52;;;13.60;99.90;;;;;;5033557;28;20507;-76
2022/09/26 01:14:27;;;;;;;1.92;1.05;;;13.60;99.90;;;;;;5044828;28;20025;-76
2022/09/26 01:16:54;;;;;;;2.65;1.60;;;13.40;99.90;;;;;;5044809;28;20514;-77
2022/09/26 01:19:33;;;;;;;2.42;1.17;;;13.40;99.90;;;;;;5034140;28;20061;-76
2022/09/26 01:22:05;;;;;;;2.50;0.90;;;13.50;99.90;;;;;;5045999;28;20398;-77
2022/09/26 01:25:03;;;;;;;3.42;1.83;;;13.50;99.90;;;;;;5032471;28;20051;-76
2022/09/26 01:27:44;;;;;;;2.33;1.13;;;13.40;99.90;;;;;;5036772;28;20044;-76
2022/09/26 01:30:21;;;;;;;2.17;1.00;;;13.30;99.90;;;;;;5033763;28;20095;-77
2022/09/26 01:33:20;;;;;;;2.20;1.23;;;13.30;99.90;;;;;;5053815;28;20513;-77
2022/09/26 01:36:04;;;;;;;2.45;1.10;;;13.30;99.90;;;;;;5033810;28;20036;-76
2022/09/26 01:38:52;;;;;;;2.20;1.05;;;13.20;99.90;;;;;;5042396;28;20079;-77
2022/09/26 01:41:36;;;;;;;3.92;1.92;;;13.30;99.90;;;;;;5051845;28;20438;-76
2022/09/26 01:44:32;;;;;;;3.70;1.40;;;13.20;99.90;;;;;;5051089;28;20390;-77
2022/09/26 01:47:20;;;;;;;1.92;1.17;;;13.10;99.90;;;;;;5050825;28;20410;-76
2022/09/26 01:49:54;;;;;;;2.00;1.00;;;13.00;99.90;;;;;;5033621;28;20038;-76
2022/09/26 01:52:37;;;;;;;;;;;12.90;99.90;;;;;;5036863;28;20073;-76
2022/09/26 01:55:15;;;;;;;4.18;1.23;;;12.90;99.90;;;;;;5048567;28;20394;-77
2022/09/26 01:57:47;;;;;;;3.08;0.93;;;13.00;99.90;;;;;;5041201;28;20029;-76
2022/09/26 02:00:13;;;;;;;1.50;0.77;;;13.10;99.90;;;;;;5047871;28;20032;-77
2022/09/26 02:02:47;;;;;;;1.67;0.90;;;13.00;99.90;;;;;;5032871;28;20087;-77
2022/09/26 02:05:22;;;;;;;2.25;1.10;;;12.90;99.90;;;;;;5037756;28;20040;-76
2022/09/26 02:08:16;;;;;;;1.50;0.80;;;12.70;99.90;;;;;;5052716;28;20048;-77
2022/09/26 02:10:47;;;;;;;3.45;1.30;;;12.80;99.90;;;;;;5041163;28;20025;-76
2022/09/26 02:13:19;;;;;;;2.63;1.38;;;13.00;99.90;;;;;;5050496;28;20572;-77
2022/09/26 02:15:50;;;;;;;2.25;1.00;;;13.00;99.90;;;;;;5049992;28;20093;-77
2022/09/26 02:18:39;;;;;;;4.13;1.30;;;13.00;99.90;;;;;;5050678;28;20130;-76
2022/09/26 02:21:16;;;;;;;2.30;1.00;;;13.00;99.90;;;;;;5044003;28;20522;-77
2022/09/26 02:23:42;;;;;;;2.90;1.17;;;13.00;99.90;;;;;;5032750;28;20514;-76
2022/09/26 02:26:08;;;;;;;3.38;1.45;;;13.00;99.90;;;;;;5033312;28;20056;-77
2022/09/26 02:28:34;;;;;;;2.90;1.45;;;13.00;99.90;;;;;;5036984;28;20036;-76
2022/09/26 02:31:03;;;;;;;3.90;1.30;;;13.00;99.90;;;;;;5037444;28;20482;-77
2022/09/26 02:33:30;;;;;;;2.95;1.65;;;12.80;99.90;;;;;;5031991;28;20033;-76
2022/09/26 02:35:56;;;;;;;3.35;1.80;;;12.90;99.90;;;;;;5043877;28;20036;-76
2022/09/26 02:38:25;;;;;;;3.58;1.85;;;12.80;99.90;;;;;;5052700;28;20064;-77
2022/09/26 02:41:20;;;;;;;3.38;2.05;;;12.70;99.90;;;;;;5038473;28;20033;-76
2022/09/26 02:44:28;;;;;;;3.22;2.00;;;12.50;99.90;;;;;;5033045;28;20025;-76
2022/09/26 02:47:15;;;;;;;4.57;1.90;;;12.60;99.90;;;;;;5031787;28;20025;-76
2022/09/26 02:49:59;;;;;;;2.42;1.40;;;12.70;99.90;;;;;;5036640;28;20025;-76
2022/09/26 02:52:27;;;;;;;2.83;1.55;;;12.60;99.90;;;;;;5033275;28;20033;-76
2022/09/26 02:55:05;;;;;;;2.25;1.20;;;12.60;99.90;;;;;;5036711;28;20029;-77
2022/09/26 02:58:00;;;;;;;1.92;0.90;;;12.40;99.90;;;;;;5042929;28;20041;-77
2022/09/26 03:00:39;;;;;;;2.80;1.20;;;12.60;99.90;;;;;;5032970;28;20030;-75
2022/09/26 03:03:20;;;;;;;1.73;1.00;;;12.50;99.90;;;;;;5033859;28;20275;-76
2022/09/26 03:05:47;;;;;;;3.55;1.27;;;12.50;99.90;;;;;;5042085;28;20582;-76
2022/09/26 03:08:26;;;;;;;2.53;1.17;;;12.30;99.90;;;;;;5047733;28;20108;-76
2022/09/26 03:10:54;;;;;;;3.45;1.02;;;12.40;99.90;;;;;;5046083;28;20143;-76
2022/09/26 03:13:22;;;;;;;1.52;0.95;;;12.40;99.90;;;;;;5045613;28;20047;-76
2022/09/26 03:15:54;;;;;;;1.23;0.73;;;12.50;99.90;;;;;;5043350;28;20052;-77
2022/09/26 03:18:23;;;;;;;2.30;1.58;;;12.50;99.90;;;;;;5028263;28;20229;-76
2022/09/26 03:20:52;;;;;;;3.20;0.88;;;12.30;99.90;;;;;;5024692;28;20057;-77
2022/09/26 03:23:25;;;;;;;2.10;0.85;;;12.20;99.90;;;;;;5041966;28;20471;-76
2022/09/26 03:26:06;;;;;;;1.25;0.80;;;12.20;99.90;;;;;;5046257;28;20040;-76
2022/09/26 03:28:32;;;;;;;1.55;0.73;;;12.10;99.90;;;;;;5048060;28;20032;-76
2022/09/26 03:30:57;;;;;;;2.83;0.60;;;12.10;99.90;;;;;;5033271;28;20033;-76
2022/09/26 03:33:23;;;;;;;1.83;0.88;;;12.10;99.90;;;;;;5028022;28;20029;-76
2022/09/26 03:35:49;;;;;;;1.27;0.70;;;12.10;99.90;;;;;;5037970;28;20068;-76
2022/09/26 03:38:14;;;;;;;2.13;0.90;;;12.30;99.90;;;;;;5028397;28;20156;-76
2022/09/26 03:40:41;;;;;;;1.27;0.85;;;12.40;99.90;;;;;;5028547;28;20048;-77
2022/09/26 03:43:06;;;;;;;2.05;0.75;;;12.30;99.90;;;;;;5046766;28;20021;-76
2022/09/26 03:45:35;;;;;;;1.77;0.80;;;12.00;99.90;;;;;;5044616;28;20112;-77
2022/09/26 03:48:01;;;;;;;1.65;0.77;;;11.90;99.90;;;;;;5032017;28;20040;-77
2022/09/26 03:50:27;;;;;;;1.17;0.50;;;11.90;99.90;;;;;;5040792;28;20037;-76
2022/09/26 03:52:52;;;;;;;1.55;0.93;;;11.80;99.90;;;;;;5047476;28;20068;-76
2022/09/26 03:55:18;;;;;;;1.63;0.82;;;11.80;99.90;;;;;;5039730;28;20036;-76
2022/09/26 03:57:44;;;;;;;1.45;0.82;;;11.80;99.90;;;;;;5045107;28;20033;-77
2022/09/26 04:00:10;;;;;;;2.35;0.90;;;11.90;99.90;;;;;;5038602;28;20356;-76
2022/09/26 04:02:36;;;;;;;4.00;1.02;;;11.90;99.90;;;;;;5025651;28;20060;-76
2022/09/26 04:05:02;;;;;;;1.20;0.68;;;11.70;99.90;;;;;;5028459;28;20057;-76
2022/09/26 04:07:28;;;;;;;2.13;0.93;;;11.80;99.90;;;;;;5035009;28;20041;-76
2022/09/26 04:09:54;;;;;;;3.38;1.30;;;12.00;99.90;;;;;;5046425;28;20082;-76
2022/09/26 04:12:20;;;;;;;0.98;0.68;;;12.00;99.90;;;;;;5037194;28;20487;-76
2022/09/26 04:14:45;;;;;;;1.55;0.82;;;12.10;99.90;;;;;;5048825;28;20131;-76
2022/09/26 04:17:11;;;;;;;3.13;1.38;;;12.00;99.90;;;;;;5038323;28;20113;-76
2022/09/26 04:19:37;;;;;;;1.55;0.80;;;12.00;99.90;;;;;;5034662;28;20036;-76
2022/09/26 04:22:07;;;;;;;2.00;1.30;;;12.00;99.90;;;;;;5046695;28;20025;-77
2022/09/26 04:24:33;;;;;;;2.33;0.80;;;12.10;99.90;;;;;;5049255;28;20028;-77
2022/09/26 04:26:59;;;;;;;1.67;0.85;;;12.00;99.90;;;;;;5047256;28;20528;-78
2022/09/26 04:29:26;;;;;;;1.35;0.80;;;12.10;99.90;;;;;;5027951;28;20121;-77
2022/09/26 04:31:52;;;;;;;2.20;0.90;;;12.10;99.90;;;;;;5027808;28;20048;-77
2022/09/26 04:34:19;;;;;;;1.70;0.60;;;11.80;99.90;;;;;;5030691;28;20039;-77
2022/09/26 04:36:45;;;;;;;1.42;0.70;;;11.80;99.90;;;;;;5033328;28;20061;-76
2022/09/26 04:39:10;;;;;;;1.27;0.70;;;11.90;99.90;;;;;;5046490;28;20060;-77
2022/09/26 04:41:36;;;;;;;2.28;0.88;;;12.00;99.90;;;;;;5043449;28;20559;-77
2022/09/26 04:44:02;;;;;;;1.75;0.95;;;12.00;99.90;;;;;;5027457;28;20539;-77
2022/09/26 04:46:29;;;;;;;1.48;0.73;;;12.10;99.90;;;;;;5028955;28;20071;-76
2022/09/26 04:48:56;;;;;;;2.33;1.00;;;12.00;99.90;;;;;;5028298;28;20030;-78
2022/09/26 04:51:24;;;;;;;1.90;0.80;;;12.00;99.90;;;;;;5043901;28;20036;-77
2022/09/26 04:53:50;;;;;;;1.20;0.70;;;12.10;99.90;;;;;;5047068;28;20087;-77
2022/09/26 04:56:19;;;;;;;1.75;0.80;;;12.00;99.90;;;;;;5041136;28;20120;-78
2022/09/26 04:58:45;;;;;;;2.25;0.90;;;11.90;99.90;;;;;;5044812;28;20087;-77
2022/09/26 05:01:21;;;;;;;2.45;1.20;;;12.00;99.90;;;;;;5044065;28;20415;-77
2022/09/26 05:03:47;;;;;;;2.47;1.10;;;11.90;99.90;;;;;;5029091;28;20083;-76
2022/09/26 05:06:16;;;;;;;2.33;1.10;;;12.00;99.90;;;;;;5044944;28;20034;-78
2022/09/26 05:08:47;;;;;;;3.80;1.40;;;11.90;99.90;;;;;;5029742;28;20456;-76
2022/09/26 05:11:15;;;;;;;2.65;1.15;;;11.90;99.90;;;;;;5039627;28;20029;-77
2022/09/26 05:13:41;;;;;;;2.50;1.15;;;11.90;99.90;;;;;;5045157;28;20049;-76
2022/09/26 05:16:08;;;;;;;2.63;1.38;;;11.80;99.90;;;;;;5045211;28;20502;-76
2022/09/26 05:18:36;;;;;;;3.65;1.52;;;11.80;99.90;;;;;;5040077;28;20029;-77
2022/09/26 05:21:02;;;;;;;1.80;1.10;;;11.80;99.90;;;;;;5033977;28;20117;-76
2022/09/26 05:26:23;;;;;;;2.75;1.30;;;11.80;99.90;;;;;;5044857;28;20044;-76
2022/09/26 05:29:00;;;;;;;2.42;1.20;;;11.70;99.90;;;;;;5027546;28;20036;-76
2022/09/26 05:31:28;;;;;;;2.08;1.10;;;11.80;99.90;;;;;;5029826;28;20079;-76
2022/09/26 05:33:56;;;;;;;2.45;0.90;;;11.80;99.90;;;;;;5045214;28;20029;-76
2022/09/26 05:36:26;;;;;;;4.75;1.25;;;11.90;99.90;;;;;;5035490;28;20033;-76
2022/09/26 05:38:52;;;;;;;1.60;0.90;;;11.90;99.90;;;;;;5024866;28;20029;-75
2022/09/26 05:41:21;;;;;;;3.47;0.85;;;11.90;99.90;;;;;;5026585;28;20025;-75
2022/09/26 05:43:47;;;;;;;1.30;0.85;;;12.10;99.90;;;;;;5026210;28;20040;-75
2022/09/26 05:46:14;;;;;;;1.35;0.63;;;12.10;99.90;;;;;;5026556;28;20029;-75
2022/09/26 05:48:40;;;;;;;1.42;0.80;;;12.10;99.90;;;;;;5026488;28;20034;-75
2022/09/26 05:51:17;;;;;;;2.08;0.80;;;12.10;99.90;;;;;;5026285;28;20025;-75
2022/09/26 05:53:44;;;;;;;1.52;0.90;;;12.10;99.90;;;;;;5025706;28;20038;-76
2022/09/26 05:56:11;;;;;;;2.92;0.90;;;12.00;99.90;;;;;;5025789;28;20032;-76
2022/09/26 05:58:39;;;;;;;3.15;0.90;;;12.00;99.90;;;;;;5026120;28;20077;-75
2022/09/26 06:01:10;;;;;;;1.52;0.80;;;12.00;99.90;;;;;;5025332;28;20495;-75
2022/09/26 06:03:36;;;;;;;3.90;0.95;;;11.90;99.90;;;;;;5027779;28;20132;-76
2022/09/26 06:06:04;;;;;;;3.35;1.02;;;11.80;99.90;;;;;;5025907;28;20064;-76
2022/09/26 06:08:30;;;;;;;1.95;0.93;;;11.70;99.90;;;;;;5026119;28;20087;-75
2022/09/26 06:11:01;;;;;;;0.88;0.63;;;11.80;99.90;;;;;;5025473;28;20033;-75
2022/09/26 06:13:28;;;;;;;1.45;0.80;;;11.90;99.90;;;;;;5025673;28;20037;-75
2022/09/26 06:15:55;;;;;;;1.27;0.75;;;11.90;99.90;;;;;;5025497;28;20487;-75
2022/09/26 06:18:21;;;;;;;1.35;0.80;;;12.00;99.90;;;;;;5031621;28;20911;-75
2022/09/26 06:20:46;;;;;;;2.60;1.05;;;12.00;99.90;;;;;;5027695;28;20028;-77
2022/09/26 06:23:12;;;;;;;2.45;1.05;;;12.00;99.90;;;;;;5028836;28;20037;-76
2022/09/26 06:25:37;;;;;;;2.50;0.90;;;12.10;99.90;;;;;;5040657;28;20117;-76
2022/09/26 06:28:03;;;;;;;1.75;0.80;;;12.10;99.90;;;;;;5029663;28;20342;-76
2022/09/26 06:30:29;;;;;;;4.43;1.65;;;12.00;99.90;;;;;;5039366;28;20032;-76
2022/09/26 06:32:54;;;;;;;2.42;0.90;;;12.00;99.90;;;;;;5029500;28;20037;-77
2022/09/26 06:35:21;;;;;;;1.52;0.70;;;11.90;99.90;;;;;;5044582;28;20464;-77
2022/09/26 06:37:47;;;;;;;1.90;0.73;;;12.00;99.90;;;;;;5050952;28;20017;-81
2022/09/26 06:40:13;;;;;;;1.45;0.73;;;12.10;99.90;;;;;;5057696;28;20033;-78
2022/09/26 06:42:39;;;;;;;1.38;0.65;;;12.00;99.90;;;;;;5044414;28;20029;-77
2022/09/26 06:45:09;;;;;;;3.13;0.70;;;12.10;99.90;;;;;;5031100;28;20032;-78
2022/09/26 06:47:35;;;;;;;2.17;0.80;;;12.10;99.90;;;;;;5031698;28;20033;-77
2022/09/26 06:50:01;;;;;;;1.25;0.65;;;12.10;99.90;;;;;;5028409;28;20554;-77
2022/09/26 06:52:33;;;;;;;1.80;0.73;;;12.20;99.90;;;;;;5027408;28;20041;-76
2022/09/26 06:55:06;;;;;;;1.20;0.50;;;12.00;99.90;;;;;;5045340;28;20087;-76
2022/09/26 06:57:40;;;;;;;1.02;0.50;;;12.00;99.90;;;;;;5027296;28;20026;-77
2022/09/26 07:00:11;;;;;;;1.80;0.53;;;12.00;99.90;;;;;;5024026;28;20047;-76
2022/09/26 07:02:37;;;;;;;1.65;0.90;;;12.00;99.90;;;;;;5035870;28;20040;-77
2022/09/26 07:05:04;;;;;;;0.75;0.43;;;12.10;99.90;;;;;;5038960;28;20051;-77
2022/09/26 07:07:31;;;;;;;3.42;0.77;;;12.20;99.90;;;;;;5036392;28;20155;-77
2022/09/26 07:09:57;;;;;;;2.17;0.50;;;12.30;99.90;;;;;;5045184;28;20029;-76
2022/09/26 07:12:27;;;;;;;2.28;0.70;;;12.20;99.90;;;;;;5043355;28;20086;-76
2022/09/26 07:14:54;;;;;;;2.15;0.68;;;12.40;99.90;;;;;;5043903;28;20419;-76
2022/09/26 07:17:19;;;;;;;2.95;0.65;;;12.50;99.90;;;;;;5040108;28;20028;-77
2022/09/26 07:19:50;;;;;;;0.88;0.50;;;12.60;99.90;;;;;;5041383;28;20033;-77
2022/09/26 07:22:16;;;;;;;1.20;0.50;;;12.60;99.90;;;;;;5044429;28;20415;-77
2022/09/26 07:24:44;;;;;;;0.88;0.30;;;12.60;99.90;;;;;;5044524;28;20025;-77
2022/09/26 07:27:10;;;;;;;0.52;0.38;;;12.60;99.90;;;;;;5027869;28;20139;-76
2022/09/26 07:29:35;;;;;;;2.10;0.50;;;12.70;99.90;;;;;;5033272;28;20148;-77
2022/09/26 07:32:01;;;;;;;1.73;0.60;;;12.70;99.90;;;;;;5042577;28;20037;-77
2022/09/26 07:34:28;;;;;;;0.30;0.30;;;12.80;99.90;;;;;;5040592;28;20364;-76
2022/09/26 07:36:54;;;;;;;1.33;0.55;;;12.80;99.90;;;;;;5023999;28;20541;-76
2022/09/26 07:39:20;;;;;;;1.27;0.52;;;12.80;99.90;;;;;;5027480;28;20064;-77
2022/09/26 07:41:46;;;;;;;0.95;0.45;;;12.90;99.90;;;;;;5028377;28;20360;-76
2022/09/26 07:44:13;;;;;;;1.40;0.47;;;12.90;99.90;;;;;;5028119;28;20029;-76
2022/09/26 07:52:06;;;;;;;1.27;0.60;;;13.00;99.90;;;;;;5034980;28;20491;-77
2022/09/26 07:54:34;;;;;;;0.65;0.40;;;13.10;99.90;;;;;;5028229;28;20048;-76
2022/09/26 07:56:59;;;;;;;0.73;0.40;;;13.00;99.90;;;;;;5027364;28;20029;-77
2022/09/26 07:59:25;;;;;;;1.35;0.30;;;13.10;99.90;;;;;;5048035;28;20028;-77
2022/09/26 08:01:52;;;;;;;1.92;0.60;;;13.20;99.90;;;;;;5048232;28;20025;-77
2022/09/26 08:04:18;;;;;;;0.88;0.40;;;13.20;99.90;;;;;;5048409;28;20029;-77
2022/09/26 08:06:44;;;;;;;1.30;0.60;;;13.20;99.90;;;;;;5048543;28;20399;-76
2022/09/26 08:09:10;;;;;;;3.45;0.50;;;13.30;99.90;;;;;;5039030;28;20025;-76
2022/09/26 08:11:36;;;;;;;1.17;0.50;;;13.30;99.90;;;;;;5028237;28;20040;-77
2022/09/26 08:14:02;;;;;;;0.93;0.40;;;13.40;99.90;;;;;;5028237;28;20041;-77
2022/09/26 08:16:28;;;;;;;0.73;0.30;;;13.30;99.90;;;;;;5028134;28;20030;-76
2022/09/26 08:18:54;;;;;;;1.90;0.63;;;13.40;99.90;;;;;;5030409;28;20109;-77
2022/09/26 08:21:20;;;;;;;1.63;1.02;;;13.40;99.90;;;;;;5044406;28;20029;-78
2022/09/26 08:23:46;;;;;;;0.30;0.20;;;13.50;99.90;;;;;;5046785;28;20063;-77
2022/09/26 08:26:12;;;;;;;1.20;0.52;;;13.60;99.90;;;;;;5037988;28;20488;-77
2022/09/26 08:28:38;;;;;;;1.02;0.40;;;13.60;99.90;;;;;;5027941;28;20099;-76
2022/09/26 08:31:05;;;;;;;1.95;0.35;;;13.90;99.90;;;;;;5027973;28;20118;-76
2022/09/26 08:33:40;;;;;;;2.45;0.57;;;13.80;99.90;;;;;;5027725;28;20029;-77
2022/09/26 08:36:09;;;;;;;;;;;13.80;99.90;;;;;;5028856;28;20094;-77
2022/09/26 08:38:36;;;;;;;2.33;0.80;;;13.80;99.90;;;;;;5027518;28;19920;-77
2022/09/26 08:41:02;;;;;;;2.00;0.77;;;13.80;99.90;;;;;;5028633;28;20929;-76
2022/09/26 08:43:33;;;;;;;0.63;0.50;;;13.90;99.90;;;;;;5033678;28;20029;-77
2022/09/26 08:49:22;;;;;;;1.88;0.60;;;14.00;99.90;;;;;;5048917;28;20041;-76
2022/09/26 08:51:54;;;;;;;0.50;0.30;;;14.00;99.90;;;;;;5049965;28;20038;-76
2022/09/26 08:54:26;;;;;;;3.25;0.82;;;14.10;99.90;;;;;;5039132;28;20025;-77
2022/09/26 08:57:00;;;;;;;3.08;0.30;;;14.20;99.90;;;;;;5058615;28;20144;-79
2022/09/26 08:59:44;;;;;;;0.65;0.30;;;14.30;99.90;;;;;;5047808;28;20075;-76
2022/09/26 09:02:32;;;;;;;3.80;0.50;;;14.40;99.90;;;;;;5048548;28;20130;-77
2022/09/26 09:05:07;;;;;;;2.10;0.57;;;14.40;99.90;;;;;;5041117;28;20144;-76
2022/09/26 09:07:33;;;;;;;0.50;0.30;;;14.50;99.90;;;;;;5029891;28;20430;-76
2022/09/26 09:10:06;;;;;;;1.98;0.30;;;14.40;99.90;;;;;;5044571;28;20028;-77
2022/09/26 09:13:02;;;;;;;1.17;0.50;;;14.40;99.90;;;;;;5050105;28;20109;-77
2022/09/26 09:15:44;;;;;;;0.28;0.10;;;14.50;99.90;;;;;;5049767;28;20063;-77
2022/09/26 09:19:07;;;;;;;1.75;0.30;;;14.70;99.90;;;;;;5037758;28;20048;-77
2022/09/26 09:22:20;;;;;;;0.90;0.32;;;15.20;99.90;;;;;;5046073;28;20086;-77
2022/09/26 09:24:53;;;;;;;0.70;0.55;;;15.30;99.90;;;;;;5028698;28;20053;-77
2022/09/26 09:27:31;;;;;;;0.63;0.28;;;15.50;99.90;;;;;;5030870;28;20490;-77
2022/09/26 09:29:57;;;;;;;1.08;0.40;;;15.70;99.90;;;;;;5030081;28;20037;-77
2022/09/26 09:32:28;;;;;;;1.13;0.50;;;15.80;99.90;;;;;;5029378;28;20037;-77
2022/09/26 09:34:54;;;;;;;0.40;0.20;;;16.10;99.90;;;;;;5032209;28;20025;-77
2022/09/26 09:37:28;;;;;;;0.65;0.30;;;15.90;99.90;;;;;;5038693;28;20112;-78
2022/09/26 09:39:55;;;;;;;2.50;0.50;;;15.90;99.90;;;;;;5037533;28;20032;-77
2022/09/26 09:42:50;;;;;;;0.80;0.40;;;15.90;99.90;;;;;;5033970;28;20121;-77
2022/09/26 09:45:24;;;;;;;2.75;0.40;;;16.00;99.90;;;;;;5037424;28;20403;-77
2022/09/26 09:47:49;;;;;;;0.30;0.28;;;16.20;99.90;;;;;;5041035;28;20027;-77
2022/09/26 09:50:54;;;;;;;1.13;0.38;;;16.70;99.90;;;;;;5043847;28;20403;-77
2022/09/26 09:53:23;;;;;;;1.17;0.38;;;16.70;99.90;;;;;;5035966;28;20081;-76
2022/09/26 09:56:17;;;;;;;2.28;0.50;;;16.50;99.90;;;;;;5048087;28;20387;-76
2022/09/26 09:59:17;;;;;;;0.52;0.20;;;16.40;99.90;;;;;;5045371;28;20048;-76
2022/09/26 10:01:47;;;;;;;1.95;0.30;;;16.30;99.90;;;;;;5048126;28;20032;-77
2022/09/26 10:04:36;;;;;;;1.23;0.25;;;16.40;99.90;;;;;;5066291;28;20031;-77
2022/09/26 10:07:04;;;;;;;1.08;0.50;;;16.50;99.90;;;;;;5069074;28;20024;-77
2022/09/26 10:09:40;;;;;;;1.38;0.40;;;16.30;99.90;;;;;;5036686;28;20053;-77
2022/09/26 10:12:11;;;;;;;1.55;0.40;;;16.40;99.80;;;;;;5036628;28;20036;-77
2022/09/26 10:15:11;;;;;;;0.40;0.20;;;16.70;99.90;;;;;;5046600;28;20068;-77
2022/09/26 10:17:38;;;;;;;0.40;0.20;;;16.70;99.30;;;;;;5046451;28;20028;-77
2022/09/26 10:20:04;;;;;;;0.50;0.28;;;16.60;98.50;;;;;;5049106;28;20065;-76
2022/09/26 10:22:36;;;;;;;1.55;0.40;;;16.80;98.70;;;;;;5039127;28;20487;-77
2022/09/26 10:25:05;;;;;;;0.65;0.30;;;17.10;99.30;;;;;;5028155;28;20087;-77
2022/09/26 10:27:39;;;;;;;0.43;0.20;;;17.30;99.80;;;;;;5048925;28;20036;-76
2022/09/26 10:30:19;;;;;;;0.68;0.30;;;17.60;99.80;;;;;;5046088;28;20036;-77
2022/09/26 10:32:49;;;;;;;1.38;0.32;;;17.60;99.40;;;;;;5044571;28;20041;-76
2022/09/26 10:35:22;;;;;;;0.85;0.43;;;17.30;98.80;;;;;;5044218;28;20036;-76
2022/09/26 10:38:04;;;;;;;0.40;0.13;;;17.70;99.90;;;;;;5041581;28;20558;-76
2022/09/26 10:40:47;;;;;;;0.98;0.40;;;17.70;99.10;;;;;;5038567;28;20106;-76
2022/09/26 10:43:36;;;;;;;0.95;0.38;;;17.60;99.00;;;;;;5026914;28;20484;-76
2022/09/26 10:46:16;;;;;;;2.42;0.60;;;17.80;98.70;;;;;;5022703;28;20116;-76
2022/09/26 10:48:45;;;;;;;1.48;0.30;;;17.80;99.40;;;;;;5023379;28;20041;-77
2022/09/26 10:51:18;;;;;;;2.20;0.30;;;18.00;99.00;;;;;;5024764;28;20026;-76
2022/09/26 10:53:47;;;;;;;1.40;0.30;;;18.10;98.50;;;;;;5024436;28;20048;-76
2022/09/26 10:56:19;;;;;;;0.95;0.30;;;18.30;98.90;;;;;;5024490;28;20069;-76
2022/09/26 10:58:45;;;;;;;0.38;0.20;;;18.40;98.20;;;;;;5023560;28;20022;-74
2022/09/26 11:01:27;;;;;;;0.63;0.35;;;18.30;97.80;;;;;;5024505;28;20030;-74
2022/09/26 11:03:56;;;;;;;2.42;0.85;;;18.60;98.20;;;;;;5024198;28;20388;-76
2022/09/26 11:06:39;;;;;;;1.17;0.35;;;18.80;97.70;;;;;;5034509;28;20041;-74
2022/09/26 11:09:06;;;;;;;0.52;0.25;;;19.00;97.60;;;;;;5043578;28;20025;-74
2022/09/26 11:11:38;;;;;;;1.25;0.30;;;19.00;97.50;;;;;;5043603;28;20058;-74
2022/09/26 11:14:07;;;;;;;0.43;0.28;;;19.20;97.80;;;;;;5043835;28;20507;-75
2022/09/26 11:16:50;;;;;;;0.98;0.40;;;19.40;97.00;;;;;;5031596;28;20025;-75
2022/09/26 11:19:47;;;;;;;0.90;0.43;;;19.50;96.70;;;;;;5028874;28;20035;-78
2022/09/26 11:22:26;;;;;;;2.83;0.52;;;19.40;96.00;;;;;;5034537;28;20048;-76
2022/09/26 11:25:13;;;;;;;1.95;0.28;;;19.40;96.40;;;;;;5024711;28;20029;-76
2022/09/26 11:27:46;;;;;;;0.90;0.30;;;19.50;96.50;;;;;;5024488;28;20083;-77
2022/09/26 11:30:19;;;;;;;0.40;0.20;;;19.70;96.00;;;;;;5037153;28;20033;-76
2022/09/26 11:32:50;;;;;;;0.70;0.30;;;19.70;95.10;;;;;;5037606;28;20068;-76
2022/09/26 11:35:23;;;;;;;0.47;0.30;;;19.80;94.00;;;;;;5023621;28;20033;-75
2022/09/26 11:38:14;;;;;;;0.43;0.10;;;19.70;94.90;;;;;;5024091;28;20415;-75
2022/09/26 11:40:59;;;;;;;0.30;0.10;;;20.00;95.00;;;;;;5035195;28;20017;-77
2022/09/26 11:43:52;;;;;;;0.30;0.20;;;19.70;93.70;;;;;;5044553;28;20475;-76
2022/09/26 11:46:35;;;;;;;0.90;0.20;;;20.00;94.70;;;;;;5045353;28;20625;-76
2022/09/26 11:49:12;;;;;;;0.25;0.17;;;20.10;95.20;;;;;;5045079;28;20036;-75
2022/09/26 11:51:52;;;;;;;2.88;0.20;;;20.40;94.50;;;;;;5025195;28;20104;-76
2022/09/26 11:54:45;;;;;;;0.95;0.40;;;20.40;95.20;;;;;;5024844;28;20029;-75
2022/09/26 11:57:36;;;;;;;1.95;0.20;;;20.10;94.60;;;;;;5024965;28;20036;-77
2022/09/26 12:00:28;;;;;;;1.05;0.20;;;19.90;94.00;;;;;;5025256;28;20030;-77
2022/09/26 12:02:59;;;;;;;1.23;0.30;;;19.80;95.30;;;;;;5024963;28;20030;-77
2022/09/26 12:05:28;;;;;;;0.15;0.10;;;20.00;94.30;;;;;;5024965;28;20029;-77
2022/09/26 12:07:59;;;;;;;0.60;0.25;;;20.30;93.80;;;;;;5024593;28;20141;-77
2022/09/26 12:10:51;;;;;;;0.35;0.15;;;20.00;94.40;;;;;;5030567;28;20108;-76
2022/09/26 12:13:39;;;;;;;9.55;1.33;;;19.50;94.80;;;;;;5045012;28;20048;-77
2022/09/26 12:16:14;;;;;;;0.63;0.30;;;19.30;95.30;;;;;;5043897;28;20362;-76
2022/09/26 12:18:44;;;;;;;1.35;0.52;;;19.20;95.20;;;;;;5044632;28;20380;-77
2022/09/26 12:21:15;;;;;;;0.80;0.30;;;19.40;94.60;;;;;;5040358;28;20029;-77
2022/09/26 12:23:56;;;;;;;1.08;0.28;;;19.10;95.10;;;;;;5040025;28;20084;-76
2022/09/26 12:26:30;;;;;;;0.73;0.30;;;18.90;96.00;;;;;;5028553;28;20043;-76
2022/09/26 12:29:36;;;;;;;0.77;0.40;;;18.70;95.40;;;;;;5026341;28;20041;-76
2022/09/26 12:32:13;;;;;;;3.30;0.93;;;18.60;95.80;;;;;;5038979;28;20446;-77
2022/09/26 12:35:03;;;;;;;5.55;1.45;;;18.40;97.10;;;;;;5048839;28;20052;-77
2022/09/26 12:37:48;;;;;;;1.52;0.30;;;18.30;97.70;;;;;;5045916;28;20068;-78
2022/09/26 12:40:36;;;;;;;3.28;0.70;;;18.20;99.60;;;;;;5027504;28;20033;-77
2022/09/26 12:43:07;;;;;;;2.30;0.85;;;18.00;99.90;;;;;;5027585;28;20026;-77
2022/09/26 12:46:11;;;;;;;2.88;0.55;;;17.80;99.90;;;;;;5027343;28;20558;-77
2022/09/26 12:48:49;;;;;;;3.30;0.73;;;16.80;99.90;;;;;;5026536;28;20096;-76
2022/09/26 12:51:39;;;;;;;1.75;0.52;;;16.20;99.90;;;;;;5028190;28;20029;-77
2022/09/26 12:54:07;;;;;;;1.75;0.50;;;16.30;99.90;;;;;;5027761;28;20038;-78
2022/09/26 12:56:53;;;;;;;7.93;1.20;;;16.50;99.90;;;;;;5027812;28;20091;-76
2022/09/26 12:59:50;;;;;;;2.92;0.40;;;16.30;99.90;;;;;;5035990;28;20025;-77
2022/09/26 13:02:34;;;;;;;1.48;0.52;;;16.40;99.90;;;;;;5047912;28;20048;-77
2022/09/26 13:05:06;;;;;;;1.80;0.40;;;16.50;99.90;;;;;;5047129;28;20021;-78
2022/09/26 13:07:35;;;;;;;2.05;0.75;;;16.60;99.90;;;;;;5048506;28;20032;-77
2022/09/26 13:10:28;;;;;;;0.17;0.10;;;16.70;99.90;;;;;;5048966;28;20065;-77
2022/09/26 13:13:28;;;;;;;0.38;0.10;;;16.80;99.90;;;;;;5049765;28;20419;-77
2022/09/26 13:16:15;;;;;;;0.65;0.20;;;17.00;99.90;;;;;;5034086;28;20036;-76
2022/09/26 13:18:46;;;;;;;0.90;0.57;;;17.00;99.90;;;;;;5048589;28;20033;-78
2022/09/26 13:21:45;;;;;;;1.83;0.20;;;16.70;99.90;;;;;;5040465;28;20570;-77
2022/09/26 13:24:24;;;;;;;2.88;0.32;;;16.80;99.90;;;;;;5028636;28;20113;-77
2022/09/26 13:26:59;;;;;;;1.55;0.38;;;16.70;99.90;;;;;;5028133;28;20037;-77
2022/09/26 13:29:29;;;;;;;0.93;0.40;;;16.70;99.90;;;;;;5027151;28;20026;-78
2022/09/26 13:32:34;;;;;;;0.70;0.30;;;16.70;99.90;;;;;;5026684;28;20042;-78